Time;durP1;ratioP1;P1;durP2;ratioP2;P2;SDS_P1;SDS_P2;PMS_P1;PMS_P2;Temp;Humidity;BMP_temperature;BMP_pressure;BME280_temperature;BME280_humidity;BME280_pressure;Samples;Min_cycle;Max_cycle;Signal;HPM_P1;HPM_P2
2022/11/24 05:31:27;;;;;;;;;1.00;0.33;;;;;;;;5116156;24;46194;-55
2022/11/24 05:33:53;;;;;;;;;1.67;0.00;;;;;;;;4701604;30;45712;-56
2022/11/24 05:39:02;;;;;;;;;1.67;1.00;;;;;;;;4690412;30;45347;-55
2022/11/24 05:41:27;;;;;;;;;2.00;2.00;;;;;;;;4698717;30;45315;-55
2022/11/24 05:43:52;;;;;;;;;1.33;1.33;;;;;;;;4702160;30;45330;-56
2022/11/24 05:46:17;;;;;;;;;2.00;2.00;;;;;;;;4700041;30;45375;-56
2022/11/24 05:48:42;;;;;;;;;2.00;1.67;;;;;;;;4701904;30;46255;-55
2022/11/24 05:51:07;;;;;;;;;6.33;1.00;;;;;;;;4698297;30;45396;-55
2022/11/24 05:53:33;;;;;;;;;3.00;2.00;;;;;;;;4690801;30;45278;-56
2022/11/24 05:56:01;;;;;;;;;5.67;1.00;;;;;;;;4693231;30;45381;-56
2022/11/24 05:58:26;;;;;;;;;7.33;1.00;;;;;;;;4704111;30;46125;-56
2022/11/24 06:00:52;;;;;;;;;3.67;1.67;;;;;;;;4691488;30;45317;-56
2022/11/24 06:03:17;;;;;;;;;4.33;3.00;;;;;;;;4699220;30;45254;-56
2022/11/24 06:05:45;;;;;;;;;5.67;2.00;;;;;;;;4703269;30;45769;-54
2022/11/24 06:08:10;;;;;;;;;2.33;2.00;;;;;;;;4702310;30;45421;-55
2022/11/24 06:10:36;;;;;;;;;2.33;2.33;;;;;;;;4702650;30;45334;-55
2022/11/24 06:13:03;;;;;;;;;3.00;2.00;;;;;;;;4702130;30;45704;-55
2022/11/24 06:15:29;;;;;;;;;4.67;2.33;;;;;;;;4703072;30;45492;-57
2022/11/24 06:17:54;;;;;;;;;4.00;1.00;;;;;;;;4694120;30;45392;-56
2022/11/24 06:20:20;;;;;;;;;6.00;2.00;;;;;;;;4698400;30;45345;-56
2022/11/24 06:22:45;;;;;;;;;4.00;1.67;;;;;;;;4695911;30;45321;-56
2022/11/24 06:25:10;;;;;;;;;5.67;1.00;;;;;;;;4699872;30;45368;-56
2022/11/24 06:27:35;;;;;;;;;4.00;1.00;;;;;;;;4697435;30;45637;-56
2022/11/24 06:30:00;;;;;;;;;7.67;2.00;;;;;;;;4701020;30;45363;-56
2022/11/24 06:32:26;;;;;;;;;3.67;1.00;;;;;;;;4698565;30;45539;-55
2022/11/24 06:34:51;;;;;;;;;5.33;2.00;;;;;;;;4690752;30;45444;-55
2022/11/24 06:37:16;;;;;;;;;3.67;2.00;;;;;;;;4695898;30;45564;-51
2022/11/24 06:39:41;;;;;;;;;7.00;2.00;;;;;;;;4702207;30;45456;-59
2022/11/24 06:42:07;;;;;;;;;5.00;3.00;;;;;;;;4698397;30;45405;-53
2022/11/24 06:44:32;;;;;;;;;7.00;2.00;;;;;;;;4697755;30;45409;-57
2022/11/24 06:46:57;;;;;;;;;5.00;3.33;;;;;;;;4695255;30;46322;-56
2022/11/24 06:49:23;;;;;;;;;4.00;2.67;;;;;;;;4699464;30;45513;-56
2022/11/24 06:51:48;;;;;;;;;2.00;2.00;;;;;;;;4698025;30;45667;-56
2022/11/24 06:54:14;;;;;;;;;1.67;1.00;;;;;;;;4699948;30;45895;-56
2022/11/24 06:56:39;;;;;;;;;2.67;1.00;;;;;;;;4684534;30;46159;-56
2022/11/24 06:59:05;;;;;;;;;2.67;1.67;;;;;;;;4697623;30;45271;-56
2022/11/24 07:01:31;;;;;;;;;6.33;2.00;;;;;;;;4705923;30;45714;-55
2022/11/24 07:03:56;;;;;;;;;4.00;2.00;;;;;;;;4702134;30;45365;-55
2022/11/24 07:06:23;;;;;;;;;2.00;2.00;;;;;;;;4705939;30;45515;-56
2022/11/24 07:08:48;;;;;;;;;3.00;1.00;;;;;;;;4701365;30;45454;-58
2022/11/24 07:11:19;;;;;;;;;3.33;1.00;;;;;;;;4708487;30;45575;-58
2022/11/24 07:13:44;;;;;;;;;3.33;0.67;;;;;;;;4713424;30;45352;-59
2022/11/24 07:16:17;;;;;;;;;3.00;3.00;;;;;;;;4707142;30;46436;-58
2022/11/24 07:18:43;;;;;;;;;3.00;1.67;;;;;;;;4700739;30;45281;-58
2022/11/24 07:21:08;;;;;;;;;4.00;3.00;;;;;;;;4711732;30;45409;-59
2022/11/24 07:23:33;;;;;;;;;1.00;1.00;;;;;;;;4709194;30;45428;-59
2022/11/24 07:26:00;;;;;;;;;2.33;2.00;;;;;;;;4702121;30;46461;-59
2022/11/24 07:28:26;;;;;;;;;2.00;2.00;;;;;;;;4700456;30;45564;-58
2022/11/24 07:30:51;;;;;;;;;3.00;1.00;;;;;;;;4703667;30;45420;-59
2022/11/24 07:33:20;;;;;;;;;7.67;3.00;;;;;;;;4706953;30;45490;-58
2022/11/24 07:35:45;;;;;;;;;6.67;2.00;;;;;;;;4701537;30;45467;-59
2022/11/24 07:38:11;;;;;;;;;3.00;0.00;;;;;;;;4697719;30;45439;-58
2022/11/24 07:40:36;;;;;;;;;6.00;3.00;;;;;;;;4701710;30;45549;-58
2022/11/24 07:43:01;;;;;;;;;3.00;3.00;;;;;;;;4701371;30;45387;-59
2022/11/24 07:45:26;;;;;;;;;7.00;3.00;;;;;;;;4690503;30;46555;-57
2022/11/24 07:47:51;;;;;;;;;4.00;2.00;;;;;;;;4701559;30;45293;-59
2022/11/24 07:50:17;;;;;;;;;3.00;2.00;;;;;;;;4700006;30;45212;-58
2022/11/24 07:52:42;;;;;;;;;3.67;3.00;;;;;;;;4692137;30;45578;-58
2022/11/24 07:55:07;;;;;;;;;3.00;2.33;;;;;;;;4701089;30;47053;-59
2022/11/24 07:57:33;;;;;;;;;7.00;3.00;;;;;;;;4695892;30;45397;-58
2022/11/24 07:59:58;;;;;;;;;4.67;4.33;;;;;;;;4690837;30;45438;-58
2022/11/24 08:02:23;;;;;;;;;2.67;2.67;;;;;;;;4701390;30;45211;-58
2022/11/24 08:04:49;;;;;;;;;11.00;3.00;;;;;;;;4701874;30;45479;-58
2022/11/24 08:07:14;;;;;;;;;5.33;3.00;;;;;;;;4701605;30;45360;-58
2022/11/24 08:09:39;;;;;;;;;3.00;3.00;;;;;;;;4701877;30;45364;-58
2022/11/24 08:12:04;;;;;;;;;5.00;3.00;;;;;;;;4702395;30;45550;-57
2022/11/24 08:14:29;;;;;;;;;3.67;3.33;;;;;;;;4701297;30;46164;-57
2022/11/24 08:16:56;;;;;;;;;4.00;3.00;;;;;;;;4701668;30;45275;-58
2022/11/24 08:19:21;;;;;;;;;4.67;2.67;;;;;;;;4701591;30;45353;-58
2022/11/24 08:21:46;;;;;;;;;5.33;5.00;;;;;;;;4701984;30;45509;-58
2022/11/24 08:24:14;;;;;;;;;6.33;4.00;;;;;;;;4702230;30;45447;-58
2022/11/24 08:26:39;;;;;;;;;6.33;2.33;;;;;;;;4705084;30;45281;-58
2022/11/24 08:29:04;;;;;;;;;6.33;3.00;;;;;;;;4704685;30;45510;-58
2022/11/24 08:31:32;;;;;;;;;6.00;4.00;;;;;;;;4704094;30;45482;-57
2022/11/24 08:33:58;;;;;;;;;4.33;4.00;;;;;;;;4704404;30;46311;-58
2022/11/24 08:36:23;;;;;;;;;5.33;3.00;;;;;;;;4704134;30;45296;-57
2022/11/24 08:38:53;;;;;;;;;8.00;6.33;;;;;;;;4704847;30;45366;-58
2022/11/24 08:41:18;;;;;;;;;7.00;6.00;;;;;;;;4704408;30;45369;-58
2022/11/24 08:43:43;;;;;;;;;3.67;3.33;;;;;;;;4704372;30;45537;-58
2022/11/24 08:46:10;;;;;;;;;3.33;3.00;;;;;;;;4704242;30;45382;-57
2022/11/24 08:48:36;;;;;;;;;14.67;4.00;;;;;;;;4704025;30;45313;-58
2022/11/24 08:51:08;;;;;;;;;5.00;5.00;;;;;;;;4704519;30;45484;-58
2022/11/24 08:53:33;;;;;;;;;7.67;3.00;;;;;;;;4703918;30;46210;-58
2022/11/24 08:55:59;;;;;;;;;5.00;5.00;;;;;;;;4695278;30;45409;-58
2022/11/24 08:58:24;;;;;;;;;6.00;4.33;;;;;;;;4705934;30;45404;-58
2022/11/24 09:00:50;;;;;;;;;4.00;4.00;;;;;;;;4704190;30;45522;-57
2022/11/24 09:03:15;;;;;;;;;5.67;4.33;;;;;;;;4698991;30;46190;-58
2022/11/24 09:05:40;;;;;;;;;3.33;3.00;;;;;;;;4694714;30;45469;-58
2022/11/24 09:08:05;;;;;;;;;6.00;3.33;;;;;;;;4695623;30;45452;-58
2022/11/24 09:10:30;;;;;;;;;2.00;2.00;;;;;;;;4703735;30;45502;-58
2022/11/24 09:12:56;;;;;;;;;6.00;4.00;;;;;;;;4699600;30;46322;-58
2022/11/24 09:15:21;;;;;;;;;6.00;3.00;;;;;;;;4698837;30;45599;-57
2022/11/24 09:17:47;;;;;;;;;5.67;4.00;;;;;;;;4703228;30;45415;-58
2022/11/24 09:20:12;;;;;;;;;3.00;3.00;;;;;;;;4704004;30;45333;-58
2022/11/24 09:22:37;;;;;;;;;6.67;3.00;;;;;;;;4703461;30;46137;-58
2022/11/24 09:25:03;;;;;;;;;6.33;3.00;;;;;;;;4694486;30;45337;-58
2022/11/24 09:27:28;;;;;;;;;6.00;3.00;;;;;;;;4694633;30;45364;-57
2022/11/24 09:29:54;;;;;;;;;8.33;3.67;;;;;;;;4703695;30;45522;-58
2022/11/24 09:32:19;;;;;;;;;5.33;3.33;;;;;;;;4693565;30;46190;-58
2022/11/24 09:34:44;;;;;;;;;5.33;3.33;;;;;;;;4703560;30;45292;-57
2022/11/24 09:37:09;;;;;;;;;16.67;6.33;;;;;;;;4703800;30;45867;-58
2022/11/24 09:39:34;;;;;;;;;3.00;2.67;;;;;;;;4703340;30;45251;-58
2022/11/24 09:42:13;;;;;;;;;5.33;2.67;;;;;;;;4701069;30;45633;-58
2022/11/24 09:44:52;;;;;;;;;4.00;2.00;;;;;;;;4686734;30;45394;-58
2022/11/24 09:47:17;;;;;;;;;5.33;5.33;;;;;;;;4702897;30;45301;-58
2022/11/24 09:49:45;;;;;;;;;8.33;5.00;;;;;;;;4703835;30;45629;-58
2022/11/24 09:52:14;;;;;;;;;7.00;5.00;;;;;;;;4703611;30;45356;-58
2022/11/24 09:54:44;;;;;;;;;6.00;5.67;;;;;;;;4703338;30;45339;-58
2022/11/24 09:57:11;;;;;;;;;7.00;4.67;;;;;;;;4706690;30;45427;-58
2022/11/24 09:59:38;;;;;;;;;6.00;4.00;;;;;;;;4704142;30;45393;-58
2022/11/24 10:02:09;;;;;;;;;7.67;5.00;;;;;;;;4703107;30;46344;-58
2022/11/24 10:04:38;;;;;;;;;13.00;5.33;;;;;;;;4702699;30;45301;-59
2022/11/24 10:07:11;;;;;;;;;6.00;5.00;;;;;;;;4703599;30;45351;-58
2022/11/24 10:09:55;;;;;;;;;6.67;3.00;;;;;;;;4694632;30;45325;-58
2022/11/24 10:12:26;;;;;;;;;8.33;5.33;;;;;;;;4702564;30;46174;-58
2022/11/24 10:14:54;;;;;;;;;4.67;3.67;;;;;;;;4696862;30;45464;-58
2022/11/24 10:17:45;;;;;;;;;5.33;4.00;;;;;;;;4700288;30;45251;-59
2022/11/24 10:20:21;;;;;;;;;8.00;6.00;;;;;;;;4703176;30;45317;-59
2022/11/24 10:22:49;;;;;;;;;4.67;2.67;;;;;;;;4688674;30;45321;-59
2022/11/24 10:25:18;;;;;;;;;3.00;2.67;;;;;;;;4701896;30;45604;-58
2022/11/24 10:27:49;;;;;;;;;9.00;3.67;;;;;;;;4688535;30;45361;-58
2022/11/24 10:30:18;;;;;;;;;4.67;4.00;;;;;;;;4703094;30;45416;-59
2022/11/24 10:32:48;;;;;;;;;8.00;4.67;;;;;;;;4703607;30;46306;-59
2022/11/24 10:35:18;;;;;;;;;5.00;3.00;;;;;;;;4693989;30;45335;-58
2022/11/24 10:38:02;;;;;;;;;2.33;2.33;;;;;;;;4703147;30;45356;-59
2022/11/24 10:40:32;;;;;;;;;2.33;2.33;;;;;;;;4701734;30;45766;-59
2022/11/24 10:42:58;;;;;;;;;4.33;2.00;;;;;;;;4702643;30;45358;-59
2022/11/24 10:45:25;;;;;;;;;4.67;2.67;;;;;;;;4686369;30;45320;-58
2022/11/24 10:47:50;;;;;;;;;2.00;1.67;;;;;;;;4693291;30;45250;-58
2022/11/24 10:50:20;;;;;;;;;4.67;3.00;;;;;;;;4682712;30;45655;-58
2022/11/24 10:52:49;;;;;;;;;3.75;2.00;;;;;;;;4684986;30;47390;-58
2022/11/24 10:55:14;;;;;;;;;3.25;2.00;;;;;;;;4699826;30;45512;-59
2022/11/24 10:57:40;;;;;;;;;5.75;2.75;;;;;;;;4703048;30;45538;-59
2022/11/24 11:00:17;;;;;;;;;4.00;2.00;;;;;;;;4702835;30;45606;-59
2022/11/24 11:02:43;;;;;;;;;3.00;2.75;;;;;;;;4702225;30;45395;-58
2022/11/24 11:05:27;;;;;;;;;1.75;1.75;;;;;;;;4702665;30;45518;-59
2022/11/24 11:08:09;;;;;;;;;5.00;1.75;;;;;;;;4693861;30;45443;-59
2022/11/24 11:10:34;;;;;;;;;2.00;2.00;;;;;;;;4702034;30;45561;-58
2022/11/24 11:13:18;;;;;;;;;4.00;2.67;;;;;;;;4702429;30;46784;-58
2022/11/24 11:15:43;;;;;;;;;3.00;2.00;;;;;;;;4702527;30;45693;-58
2022/11/24 11:18:13;;;;;;;;;7.75;4.00;;;;;;;;4702443;30;45420;-58
2022/11/24 11:20:38;;;;;;;;;5.25;3.00;;;;;;;;4702349;30;45520;-58
2022/11/24 11:23:15;;;;;;;;;3.75;2.00;;;;;;;;4702574;30;45503;-59
2022/11/24 11:25:42;;;;;;;;;6.00;2.00;;;;;;;;4698170;30;45317;-59
2022/11/24 11:28:16;;;;;;;;;9.00;4.75;;;;;;;;4696677;30;45395;-59
2022/11/24 11:30:53;;;;;;;;;3.50;2.25;;;;;;;;4701966;30;45297;-59
2022/11/24 11:33:22;;;;;;;;;6.25;3.00;;;;;;;;4701442;30;45382;-59
2022/11/24 11:35:47;;;;;;;;;6.00;3.00;;;;;;;;4702169;30;45480;-59
2022/11/24 11:38:12;;;;;;;;;4.25;3.25;;;;;;;;4701864;30;45344;-59
2022/11/24 11:40:41;;;;;;;;;3.00;2.25;;;;;;;;4701707;30;45335;-59
2022/11/24 11:43:32;;;;;;;;;4.50;2.25;;;;;;;;4700415;30;46897;-59
2022/11/24 11:46:01;;;;;;;;;13.00;3.00;;;;;;;;4693341;30;45452;-59
2022/11/24 11:48:33;;;;;;;;;6.75;4.25;;;;;;;;4701431;30;45491;-59
2022/11/24 11:51:10;;;;;;;;;6.50;3.00;;;;;;;;4701915;30;45772;-59
2022/11/24 11:53:35;;;;;;;;;5.00;2.00;;;;;;;;4701669;30;46413;-59
2022/11/24 11:56:01;;;;;;;;;2.75;2.00;;;;;;;;4702014;30;45488;-59
2022/11/24 11:58:29;;;;;;;;;4.75;2.75;;;;;;;;4706975;30;45333;-59
2022/11/24 12:01:15;;;;;;;;;4.00;3.00;;;;;;;;4704129;30;45537;-59
2022/11/24 12:03:40;;;;;;;;;5.25;3.75;;;;;;;;4691024;30;45330;-59
2022/11/24 12:06:24;;;;;;;;;2.25;2.25;;;;;;;;4703914;30;45526;-59
2022/11/24 12:08:55;;;;;;;;;2.75;2.50;;;;;;;;4704850;30;45436;-59
2022/11/24 12:11:35;;;;;;;;;5.75;4.00;;;;;;;;4704430;30;45381;-59
2022/11/24 12:14:10;;;;;;;;;6.50;2.50;;;;;;;;4704336;30;45509;-59
2022/11/24 12:16:44;;;;;;;;;4.00;4.00;;;;;;;;4697348;30;45234;-59
2022/11/24 12:19:09;;;;;;;;;9.67;6.00;;;;;;;;4704178;30;45446;-59
2022/11/24 12:21:41;;;;;;;;;6.40;3.60;;;;;;;;4696322;30;45251;-60
2022/11/24 12:24:06;;;;;;;;;6.25;3.25;;;;;;;;4705111;30;46836;-59
2022/11/24 12:26:31;;;;;;;;;5.25;2.25;;;;;;;;4704454;30;45423;-59
2022/11/24 12:29:09;;;;;;;;;6.00;6.00;;;;;;;;4705099;30;45293;-59
2022/11/24 12:31:34;;;;;;;;;4.75;3.75;;;;;;;;4695561;30;45530;-59
2022/11/24 12:34:11;;;;;;;;;6.33;4.67;;;;;;;;4704614;30;45581;-59
2022/11/24 12:36:52;;;;;;;;;6.33;4.33;;;;;;;;4695827;30;45829;-59
2022/11/24 12:39:23;;;;;;;;;11.00;7.00;;;;;;;;4704350;30;45526;-59
2022/11/24 12:41:57;;;;;;;;;7.33;6.67;;;;;;;;4701992;30;46158;-59
2022/11/24 12:44:43;;;;;;;;;6.33;5.00;;;;;;;;4697204;30;46962;-59
2022/11/24 12:47:20;;;;;;;;;16.00;9.00;;;;;;;;4702878;30;45780;-59
2022/11/24 12:49:46;;;;;;;;;5.33;5.00;;;;;;;;4704107;30;45434;-59
2022/11/24 12:52:22;;;;;;;;;7.33;5.67;;;;;;;;4704957;30;45222;-59
2022/11/24 12:54:48;;;;;;;;;13.00;4.00;;;;;;;;4704138;30;45374;-59
2022/11/24 12:57:13;;;;;;;;;6.00;5.00;;;;;;;;4707700;30;45293;-59
2022/11/24 12:59:57;;;;;;;;;9.67;6.67;;;;;;;;4704852;30;45301;-59
2022/11/24 13:02:40;;;;;;;;;4.67;4.67;;;;;;;;4703581;30;46084;-59
2022/11/24 13:05:29;;;;;;;;;9.67;6.67;;;;;;;;4696075;30;45305;-58
2022/11/24 13:07:56;;;;;;;;;7.00;7.00;;;;;;;;4703816;30;45254;-58
2022/11/24 13:10:24;;;;;;;;;10.33;7.33;;;;;;;;4703194;30;45396;-59
2022/11/24 13:12:53;;;;;;;;;10.00;6.67;;;;;;;;4704171;30;45537;-59
2022/11/24 13:15:18;;;;;;;;;7.33;5.67;;;;;;;;4703296;30;46501;-59
2022/11/24 13:17:43;;;;;;;;;6.67;6.33;;;;;;;;4703800;30;45274;-59
2022/11/24 13:20:13;;;;;;;;;9.67;9.67;;;;;;;;4704237;30;45448;-58
2022/11/24 13:22:38;;;;;;;;;9.33;6.00;;;;;;;;4703866;30;45388;-59
2022/11/24 13:25:09;;;;;;;;;12.33;7.67;;;;;;;;4703816;30;45469;-58
2022/11/24 13:27:39;;;;;;;;;9.33;5.67;;;;;;;;4703450;30;45179;-58
2022/11/24 13:30:24;;;;;;;;;6.00;4.33;;;;;;;;4703208;30;45563;-58
2022/11/24 13:32:57;;;;;;;;;10.33;8.00;;;;;;;;4696913;30;45440;-58
2022/11/24 13:35:22;;;;;;;;;11.00;7.33;;;;;;;;4703271;30;45479;-58
2022/11/24 13:37:50;;;;;;;;;6.67;5.00;;;;;;;;4703614;30;45419;-59
2022/11/24 13:40:21;;;;;;;;;7.67;4.00;;;;;;;;4701714;30;45405;-59
2022/11/24 13:43:01;;;;;;;;;4.00;3.33;;;;;;;;4696212;30;45446;-58
2022/11/24 13:45:38;;;;;;;;;10.00;4.00;;;;;;;;4703003;30;46166;-58
2022/11/24 13:48:19;;;;;;;;;4.33;3.33;;;;;;;;4703303;30;45444;-59
2022/11/24 13:50:51;;;;;;;;;5.00;3.67;;;;;;;;4696972;30;45552;-58
2022/11/24 13:53:34;;;;;;;;;7.00;4.33;;;;;;;;4693732;30;45691;-58
2022/11/24 13:55:59;;;;;;;;;11.67;5.00;;;;;;;;4702996;30;46289;-59
2022/11/24 13:58:35;;;;;;;;;8.00;4.00;;;;;;;;4708266;30;45545;-59
2022/11/24 14:01:19;;;;;;;;;7.00;4.67;;;;;;;;4702522;30;45343;-58
2022/11/24 14:03:44;;;;;;;;;5.00;3.33;;;;;;;;4703558;30;45651;-58
2022/11/24 14:06:15;;;;;;;;;4.33;4.33;;;;;;;;4703390;30;46261;-58
2022/11/24 14:08:44;;;;;;;;;8.00;5.00;;;;;;;;4703496;30;45382;-58
2022/11/24 14:11:12;;;;;;;;;4.00;3.67;;;;;;;;4703509;30;45175;-58
2022/11/24 14:13:37;;;;;;;;;8.33;5.33;;;;;;;;4703022;30;45524;-58
2022/11/24 14:16:08;;;;;;;;;8.33;5.67;;;;;;;;4703099;30;46331;-58
2022/11/24 14:18:34;;;;;;;;;6.67;4.33;;;;;;;;4702207;30;45330;-58
2022/11/24 14:21:14;;;;;;;;;6.67;4.00;;;;;;;;4703259;30;45359;-58
2022/11/24 14:23:40;;;;;;;;;6.00;3.67;;;;;;;;4703803;30;45365;-58
2022/11/24 14:26:05;;;;;;;;;8.67;5.00;;;;;;;;4703351;30;45437;-58
2022/11/24 14:28:31;;;;;;;;;6.67;5.00;;;;;;;;4693660;30;45565;-58
2022/11/24 14:31:17;;;;;;;;;10.33;4.00;;;;;;;;4702856;30;45415;-58
2022/11/24 14:33:42;;;;;;;;;6.33;4.00;;;;;;;;4702950;30;45395;-58
2022/11/24 14:36:12;;;;;;;;;8.67;3.67;;;;;;;;4703318;30;45415;-58
2022/11/24 14:38:37;;;;;;;;;4.67;3.00;;;;;;;;4700680;30;45588;-58
2022/11/24 14:41:32;;;;;;;;;4.67;4.33;;;;;;;;4703142;30;45557;-58
2022/11/24 14:44:03;;;;;;;;;5.67;5.00;;;;;;;;4678228;30;45477;-58
2022/11/24 14:46:28;;;;;;;;;5.33;5.00;;;;;;;;4701028;30;46313;-58
2022/11/24 14:48:53;;;;;;;;;7.33;3.67;;;;;;;;4697271;30;45284;-58
2022/11/24 14:51:20;;;;;;;;;8.33;7.00;;;;;;;;4699550;30;45171;-58
2022/11/24 14:53:47;;;;;;;;;6.33;6.00;;;;;;;;4686914;30;45163;-58
2022/11/24 14:56:21;;;;;;;;;12.33;3.67;;;;;;;;4702281;30;45375;-58
2022/11/24 14:58:46;;;;;;;;;8.33;4.00;;;;;;;;4699435;30;45515;-58
2022/11/24 15:01:17;;;;;;;;;10.00;6.00;;;;;;;;4702036;30;45308;-58
2022/11/24 15:03:42;;;;;;;;;6.00;5.00;;;;;;;;4702902;30;46013;-59
2022/11/24 15:06:14;;;;;;;;;13.67;5.67;;;;;;;;4693579;30;45201;-57
2022/11/24 15:08:43;;;;;;;;;6.33;5.67;;;;;;;;4702674;30;45341;-57
2022/11/24 15:11:09;;;;;;;;;8.33;5.00;;;;;;;;4702552;30;45391;-58
2022/11/24 15:13:36;;;;;;;;;11.00;4.67;;;;;;;;4702196;30;45248;-57
2022/11/24 15:16:03;;;;;;;;;4.00;3.67;;;;;;;;4702261;30;46344;-57
2022/11/24 15:18:35;;;;;;;;;8.33;4.33;;;;;;;;4701732;30;45409;-57
2022/11/24 15:21:01;;;;;;;;;5.33;3.67;;;;;;;;4702532;30;45341;-57
2022/11/24 15:23:26;;;;;;;;;4.33;4.00;;;;;;;;4701881;30;45476;-57
2022/11/24 15:25:57;;;;;;;;;1.67;0.00;;;;;;;;4693355;30;45444;-58
2022/11/24 15:28:26;;;;;;;;;7.67;5.00;;;;;;;;4702000;30;45285;-57
2022/11/24 15:30:52;;;;;;;;;4.67;3.67;;;;;;;;4698767;30;45348;-57
2022/11/24 15:33:18;;;;;;;;;1.00;1.00;;;;;;;;4701002;30;45513;-57
2022/11/24 15:35:43;;;;;;;;;8.67;6.33;;;;;;;;4701632;30;46294;-57
2022/11/24 15:38:09;;;;;;;;;4.33;2.00;;;;;;;;4693631;30;45717;-57
2022/11/24 15:40:35;;;;;;;;;3.67;3.67;;;;;;;;4699928;30;45544;-58
2022/11/24 15:43:00;;;;;;;;;9.33;5.67;;;;;;;;4694527;30;45620;-58
2022/11/24 15:45:26;;;;;;;;;5.33;5.33;;;;;;;;4701439;30;46212;-58
2022/11/24 15:47:51;;;;;;;;;6.33;4.67;;;;;;;;4695992;30;45213;-57
2022/11/24 15:50:17;;;;;;;;;6.67;5.67;;;;;;;;4689740;30;46500;-57
2022/11/24 15:52:42;;;;;;;;;6.67;6.00;;;;;;;;4699198;30;45460;-57
2022/11/24 15:55:18;;;;;;;;;5.33;5.33;;;;;;;;4701197;30;46320;-58
2022/11/24 15:57:43;;;;;;;;;8.67;5.67;;;;;;;;4699002;30;45593;-58
2022/11/24 16:00:12;;;;;;;;;9.00;4.33;;;;;;;;4694200;30;45387;-58
2022/11/24 16:02:37;;;;;;;;;9.67;6.00;;;;;;;;4684643;30;45380;-57
2022/11/24 16:05:03;;;;;;;;;10.00;4.67;;;;;;;;4701017;30;46345;-58
2022/11/24 16:07:30;;;;;;;;;6.00;4.00;;;;;;;;4684642;30;45348;-58
2022/11/24 16:09:55;;;;;;;;;5.33;5.33;;;;;;;;4684928;30;45473;-57
2022/11/24 16:12:21;;;;;;;;;11.33;3.33;;;;;;;;4692412;30;45684;-57
2022/11/24 16:14:46;;;;;;;;;9.67;4.67;;;;;;;;4700599;30;45384;-58
2022/11/24 16:17:11;;;;;;;;;4.33;4.00;;;;;;;;4701326;30;45352;-57
2022/11/24 16:19:36;;;;;;;;;6.00;4.67;;;;;;;;4700938;30;45429;-57
2022/11/24 16:22:02;;;;;;;;;6.00;5.33;;;;;;;;4701184;30;45195;-58
2022/11/24 16:24:27;;;;;;;;;7.67;5.00;;;;;;;;4698665;30;45269;-58
2022/11/24 16:26:52;;;;;;;;;4.67;4.33;;;;;;;;4701417;30;45824;-58
2022/11/24 16:29:19;;;;;;;;;10.67;7.33;;;;;;;;4701483;30;45371;-58
2022/11/24 16:31:45;;;;;;;;;7.00;7.00;;;;;;;;4701205;30;45316;-57
2022/11/24 16:34:11;;;;;;;;;11.33;5.33;;;;;;;;4701570;30;47120;-58
2022/11/24 16:36:36;;;;;;;;;5.67;4.67;;;;;;;;4701163;30;45642;-58
2022/11/24 16:39:01;;;;;;;;;6.67;4.67;;;;;;;;4701671;30;45419;-58
2022/11/24 16:41:26;;;;;;;;;6.67;5.00;;;;;;;;4679756;30;45388;-58
2022/11/24 16:43:52;;;;;;;;;7.67;6.33;;;;;;;;4699568;30;46345;-58
2022/11/24 16:46:21;;;;;;;;;6.67;5.67;;;;;;;;4688568;30;45488;-57
2022/11/24 16:48:47;;;;;;;;;5.33;5.00;;;;;;;;4695338;30;45464;-58
2022/11/24 16:51:13;;;;;;;;;8.33;6.33;;;;;;;;4703411;30;45430;-59
2022/11/24 16:53:38;;;;;;;;;8.00;5.00;;;;;;;;4703743;30;45502;-59
2022/11/24 16:56:04;;;;;;;;;9.33;6.33;;;;;;;;4703736;30;45452;-59
2022/11/24 16:58:29;;;;;;;;;7.33;6.67;;;;;;;;4703891;30;45488;-59
2022/11/24 17:01:00;;;;;;;;;4.00;4.00;;;;;;;;4695784;30;45433;-58
2022/11/24 17:03:29;;;;;;;;;10.00;7.33;;;;;;;;4703198;30;45443;-58
2022/11/24 17:05:57;;;;;;;;;7.67;4.67;;;;;;;;4697915;30;45540;-59
2022/11/24 17:08:22;;;;;;;;;10.67;5.00;;;;;;;;4698278;30;45816;-58
2022/11/24 17:10:47;;;;;;;;;5.00;5.00;;;;;;;;4703862;30;45368;-59
2022/11/24 17:13:13;;;;;;;;;9.67;7.67;;;;;;;;4703132;30;45356;-59
2022/11/24 17:15:38;;;;;;;;;7.33;4.67;;;;;;;;4702574;30;45316;-59
2022/11/24 17:18:03;;;;;;;;;6.00;4.33;;;;;;;;4700915;30;45503;-59
2022/11/24 17:20:30;;;;;;;;;9.67;4.00;;;;;;;;4701749;30;45886;-59
2022/11/24 17:22:55;;;;;;;;;6.33;5.00;;;;;;;;4702824;30;46760;-58
2022/11/24 17:25:20;;;;;;;;;8.00;6.00;;;;;;;;4702373;30;45458;-58
2022/11/24 17:27:45;;;;;;;;;5.00;4.00;;;;;;;;4702764;30;45293;-58
2022/11/24 17:30:11;;;;;;;;;6.00;4.00;;;;;;;;4700613;30;45502;-59
2022/11/24 17:32:36;;;;;;;;;4.67;4.00;;;;;;;;4694889;30;46885;-58
2022/11/24 17:35:01;;;;;;;;;7.00;5.00;;;;;;;;4703061;30;45667;-58
2022/11/24 17:37:26;;;;;;;;;10.67;6.33;;;;;;;;4695232;30;45467;-58
2022/11/24 17:39:51;;;;;;;;;4.67;3.67;;;;;;;;4703323;30;45347;-58
2022/11/24 17:42:16;;;;;;;;;6.33;3.67;;;;;;;;4697823;30;46324;-58
2022/11/24 17:44:42;;;;;;;;;6.00;4.00;;;;;;;;4696439;30;45230;-58
2022/11/24 17:47:07;;;;;;;;;6.00;4.00;;;;;;;;4696694;30;45742;-58
2022/11/24 17:49:32;;;;;;;;;3.67;3.67;;;;;;;;4700606;30;45476;-58
2022/11/24 17:51:57;;;;;;;;;9.00;5.00;;;;;;;;4701575;30;45499;-58
2022/11/24 17:54:22;;;;;;;;;7.33;5.00;;;;;;;;4695647;30;45503;-58
2022/11/24 17:56:48;;;;;;;;;6.67;5.00;;;;;;;;4694673;30;45421;-58
2022/11/24 17:59:13;;;;;;;;;8.00;5.00;;;;;;;;4699714;30;45779;-58
2022/11/24 18:01:38;;;;;;;;;11.00;7.00;;;;;;;;4691762;30;45511;-58
2022/11/24 18:04:03;;;;;;;;;8.00;5.00;;;;;;;;4698803;30;45557;-58
2022/11/24 18:06:29;;;;;;;;;6.33;4.67;;;;;;;;4701630;30;45647;-58
2022/11/24 18:08:55;;;;;;;;;10.67;6.33;;;;;;;;4702716;30;45614;-58
2022/11/24 18:11:24;;;;;;;;;8.00;7.00;;;;;;;;4702259;30;45448;-58
2022/11/24 18:13:50;;;;;;;;;7.67;5.33;;;;;;;;4703050;30;45393;-58
2022/11/24 18:16:15;;;;;;;;;5.67;5.00;;;;;;;;4701486;30;45353;-58
2022/11/24 18:18:41;;;;;;;;;6.67;6.00;;;;;;;;4696941;30;45539;-58
2022/11/24 18:21:10;;;;;;;;;3.33;1.00;;;;;;;;4702678;30;46106;-58
2022/11/24 18:23:35;;;;;;;;;11.00;5.00;;;;;;;;4701969;30;45303;-58
2022/11/24 18:26:02;;;;;;;;;12.00;5.67;;;;;;;;4700061;30;45476;-58
2022/11/24 18:28:28;;;;;;;;;9.33;5.67;;;;;;;;4701320;30;45439;-59
2022/11/24 18:30:59;;;;;;;;;7.00;4.33;;;;;;;;4702687;30;45289;-59
2022/11/24 18:33:24;;;;;;;;;6.33;5.00;;;;;;;;4696622;30;45263;-59
2022/11/24 18:35:56;;;;;;;;;5.33;3.00;;;;;;;;4701624;30;45421;-59
2022/11/24 18:38:21;;;;;;;;;6.33;3.33;;;;;;;;4698014;30;45582;-59
2022/11/24 18:40:50;;;;;;;;;9.00;2.00;;;;;;;;4699519;30;46201;-59
2022/11/24 18:43:16;;;;;;;;;10.33;6.33;;;;;;;;4679608;30;45343;-59
2022/11/24 18:45:41;;;;;;;;;10.33;6.00;;;;;;;;4675231;30;45416;-59
2022/11/24 18:48:06;;;;;;;;;7.00;5.33;;;;;;;;4685907;30;45759;-59
2022/11/24 18:50:32;;;;;;;;;10.00;6.67;;;;;;;;4700512;30;46211;-59
2022/11/24 18:52:57;;;;;;;;;5.00;4.00;;;;;;;;4701962;30;45439;-59
2022/11/24 18:55:22;;;;;;;;;17.33;9.00;;;;;;;;4698530;30;45529;-59
2022/11/24 18:57:47;;;;;;;;;8.33;5.33;;;;;;;;4693270;30;45585;-59
2022/11/24 19:00:13;;;;;;;;;5.00;3.33;;;;;;;;4694132;30;45841;-60
2022/11/24 19:02:38;;;;;;;;;13.33;7.00;;;;;;;;4671914;30;45747;-59
2022/11/24 19:05:03;;;;;;;;;9.33;6.33;;;;;;;;4684627;30;45292;-58
2022/11/24 19:07:28;;;;;;;;;6.33;5.33;;;;;;;;4698117;30;45406;-58
2022/11/24 19:09:54;;;;;;;;;6.67;5.33;;;;;;;;4701874;30;45986;-58
2022/11/24 19:12:19;;;;;;;;;11.33;8.33;;;;;;;;4701949;30;45300;-58
2022/11/24 19:14:44;;;;;;;;;7.00;6.33;;;;;;;;4701538;30;45372;-58
2022/11/24 19:17:09;;;;;;;;;12.33;6.67;;;;;;;;4696206;30;45352;-58
2022/11/24 19:19:34;;;;;;;;;6.00;5.00;;;;;;;;4694988;30;46221;-58
2022/11/24 19:22:00;;;;;;;;;5.67;5.00;;;;;;;;4702537;30;45338;-58
2022/11/24 19:24:25;;;;;;;;;9.33;8.00;;;;;;;;4701771;30;45512;-59
2022/11/24 19:26:50;;;;;;;;;8.00;7.00;;;;;;;;4687339;30;45838;-59
2022/11/24 19:29:16;;;;;;;;;8.67;5.00;;;;;;;;4696521;30;46389;-63
2022/11/24 19:31:42;;;;;;;;;12.00;7.67;;;;;;;;4696912;30;46504;-58
2022/11/24 19:34:08;;;;;;;;;11.33;5.33;;;;;;;;4698347;30;45435;-59
2022/11/24 19:36:33;;;;;;;;;8.33;6.00;;;;;;;;4700301;30;45368;-60
2022/11/24 19:38:58;;;;;;;;;7.00;6.00;;;;;;;;4700944;30;45988;-59
2022/11/24 19:41:27;;;;;;;;;7.33;5.67;;;;;;;;4699940;30;45669;-59
2022/11/24 19:43:53;;;;;;;;;7.33;5.67;;;;;;;;4689245;30;47185;-59
2022/11/24 19:46:19;;;;;;;;;9.33;6.33;;;;;;;;4692098;30;45857;-60
2022/11/24 19:48:45;;;;;;;;;8.33;5.33;;;;;;;;4696640;30;46176;-60
2022/11/24 19:51:12;;;;;;;;;11.00;6.00;;;;;;;;4696932;30;45842;-60
2022/11/24 19:53:37;;;;;;;;;6.67;6.00;;;;;;;;4690173;30;45360;-58
2022/11/24 19:56:04;;;;;;;;;10.67;6.67;;;;;;;;4684689;30;45158;-59
2022/11/24 19:58:29;;;;;;;;;6.67;6.00;;;;;;;;4694233;30;45446;-59
2022/11/24 20:00:54;;;;;;;;;8.00;7.00;;;;;;;;4692560;30;45409;-59
2022/11/24 20:03:20;;;;;;;;;13.00;7.33;;;;;;;;4696069;30;45357;-60
2022/11/24 20:05:53;;;;;;;;;9.67;7.67;;;;;;;;4700695;30;45364;-60
2022/11/24 20:08:18;;;;;;;;;11.33;7.00;;;;;;;;4701517;30;46301;-59
2022/11/24 20:10:43;;;;;;;;;8.33;7.00;;;;;;;;4696825;30;45508;-59
2022/11/24 20:13:08;;;;;;;;;9.00;7.33;;;;;;;;4697043;30;45395;-60
2022/11/24 20:15:33;;;;;;;;;12.33;9.00;;;;;;;;4700830;30;45722;-60
2022/11/24 20:17:59;;;;;;;;;8.00;7.33;;;;;;;;4694777;30;45300;-59